sensor_id;sensor_type;location;lat;lon;timestamp;P1;durP1;ratioP1;P2;durP2;ratioP2
57345;SDS011;43181;50.974;18.244;2022-11-20T00:01:16;1.60;;;1.60;;
57345;SDS011;43181;50.974;18.244;2022-11-20T00:03:46;5.30;;;3.10;;
57345;SDS011;43181;50.974;18.244;2022-11-20T00:06:16;2.30;;;1.70;;
57345;SDS011;43181;50.974;18.244;2022-11-20T00:08:43;2.10;;;2.00;;
57345;SDS011;43181;50.974;18.244;2022-11-20T00:11:10;1.00;;;1.00;;
57345;SDS011;43181;50.974;18.244;2022-11-20T00:13:37;2.10;;;2.00;;
57345;SDS011;43181;50.974;18.244;2022-11-20T00:16:03;0.40;;;0.40;;
57345;SDS011;43181;50.974;18.244;2022-11-20T00:18:30;0.50;;;0.50;;
57345;SDS011;43181;50.974;18.244;2022-11-20T00:21:01;2.10;;;2.00;;
57345;SDS011;43181;50.974;18.244;2022-11-20T00:23:30;0.60;;;0.60;;
57345;SDS011;43181;50.974;18.244;2022-11-20T00:25:55;0.70;;;0.70;;
57345;SDS011;43181;50.974;18.244;2022-11-20T00:28:21;1.80;;;1.70;;
57345;SDS011;43181;50.974;18.244;2022-11-20T00:30:46;3.00;;;2.90;;
57345;SDS011;43181;50.974;18.244;2022-11-20T00:33:12;5.50;;;4.20;;
57345;SDS011;43181;50.974;18.244;2022-11-20T00:35:37;2.80;;;2.30;;
57345;SDS011;43181;50.974;18.244;2022-11-20T00:38:03;1.70;;;1.60;;
57345;SDS011;43181;50.974;18.244;2022-11-20T00:40:28;0.70;;;0.70;;
57345;SDS011;43181;50.974;18.244;2022-11-20T00:42:54;3.00;;;2.70;;
57345;SDS011;43181;50.974;18.244;2022-11-20T00:45:20;1.60;;;1.50;;
57345;SDS011;43181;50.974;18.244;2022-11-20T00:47:45;1.60;;;1.50;;
57345;SDS011;43181;50.974;18.244;2022-11-20T00:50:10;0.80;;;0.80;;
57345;SDS011;43181;50.974;18.244;2022-11-20T00:52:36;1.50;;;1.50;;
57345;SDS011;43181;50.974;18.244;2022-11-20T00:55:02;3.30;;;3.00;;
57345;SDS011;43181;50.974;18.244;2022-11-20T00:57:27;2.30;;;1.20;;
57345;SDS011;43181;50.974;18.244;2022-11-20T00:59:53;0.70;;;0.70;;
57345;SDS011;43181;50.974;18.244;2022-11-20T01:02:18;0.70;;;0.70;;
57345;SDS011;43181;50.974;18.244;2022-11-20T01:04:44;0.60;;;0.60;;
57345;SDS011;43181;50.974;18.244;2022-11-20T01:07:09;2.00;;;0.70;;
57345;SDS011;43181;50.974;18.244;2022-11-20T01:09:35;7.70;;;2.50;;
57345;SDS011;43181;50.974;18.244;2022-11-20T01:12:00;1.90;;;1.80;;
57345;SDS011;43181;50.974;18.244;2022-11-20T01:14:26;1.90;;;1.90;;
57345;SDS011;43181;50.974;18.244;2022-11-20T01:16:53;0.80;;;0.80;;
57345;SDS011;43181;50.974;18.244;2022-11-20T01:19:22;2.30;;;2.20;;
57345;SDS011;43181;50.974;18.244;2022-11-20T01:21:49;2.20;;;2.10;;
57345;SDS011;43181;50.974;18.244;2022-11-20T01:24:18;1.50;;;1.50;;
57345;SDS011;43181;50.974;18.244;2022-11-20T01:26:44;3.90;;;2.40;;
57345;SDS011;43181;50.974;18.244;2022-11-20T01:29:19;1.50;;;1.50;;
57345;SDS011;43181;50.974;18.244;2022-11-20T01:31:46;5.00;;;3.50;;
57345;SDS011;43181;50.974;18.244;2022-11-20T01:34:13;0.80;;;0.80;;
57345;SDS011;43181;50.974;18.244;2022-11-20T01:36:41;2.60;;;2.00;;
57345;SDS011;43181;50.974;18.244;2022-11-20T01:39:10;0.60;;;0.60;;
57345;SDS011;43181;50.974;18.244;2022-11-20T01:41:38;3.00;;;1.50;;
57345;SDS011;43181;50.974;18.244;2022-11-20T01:44:41;10.10;;;1.50;;
57345;SDS011;43181;50.974;18.244;2022-11-20T01:47:39;4.30;;;3.10;;
57345;SDS011;43181;50.974;18.244;2022-11-20T01:52:37;4.10;;;3.30;;
57345;SDS011;43181;50.974;18.244;2022-11-20T01:55:27;0.90;;;0.90;;
57345;SDS011;43181;50.974;18.244;2022-11-20T01:57:56;3.20;;;3.00;;
57345;SDS011;43181;50.974;18.244;2022-11-20T02:00:22;0.40;;;0.40;;
57345;SDS011;43181;50.974;18.244;2022-11-20T02:02:50;3.60;;;3.20;;
57345;SDS011;43181;50.974;18.244;2022-11-20T02:05:21;3.40;;;1.80;;
57345;SDS011;43181;50.974;18.244;2022-11-20T02:07:49;1.10;;;1.10;;
57345;SDS011;43181;50.974;18.244;2022-11-20T02:10:15;1.40;;;1.30;;
57345;SDS011;43181;50.974;18.244;2022-11-20T02:12:41;1.70;;;1.70;;
57345;SDS011;43181;50.974;18.244;2022-11-20T02:15:25;0.70;;;0.70;;
57345;SDS011;43181;50.974;18.244;2022-11-20T02:17:51;4.60;;;3.70;;
57345;SDS011;43181;50.974;18.244;2022-11-20T02:20:16;1.60;;;1.50;;
57345;SDS011;43181;50.974;18.244;2022-11-20T02:22:46;1.50;;;1.50;;
57345;SDS011;43181;50.974;18.244;2022-11-20T02:25:16;2.80;;;2.40;;
57345;SDS011;43181;50.974;18.244;2022-11-20T02:27:42;1.60;;;1.60;;
57345;SDS011;43181;50.974;18.244;2022-11-20T02:30:08;1.40;;;0.80;;
57345;SDS011;43181;50.974;18.244;2022-11-20T02:32:36;1.00;;;1.00;;
57345;SDS011;43181;50.974;18.244;2022-11-20T02:35:38;0.60;;;0.60;;
57345;SDS011;43181;50.974;18.244;2022-11-20T02:37:54;1.80;;;1.70;;
57345;SDS011;43181;50.974;18.244;2022-11-20T02:40:21;0.60;;;0.60;;
57345;SDS011;43181;50.974;18.244;2022-11-20T02:42:47;5.70;;;3.00;;
57345;SDS011;43181;50.974;18.244;2022-11-20T02:45:13;0.80;;;0.80;;
57345;SDS011;43181;50.974;18.244;2022-11-20T02:47:38;3.30;;;3.20;;
57345;SDS011;43181;50.974;18.244;2022-11-20T02:50:04;4.00;;;3.80;;
57345;SDS011;43181;50.974;18.244;2022-11-20T02:52:30;4.70;;;4.30;;
57345;SDS011;43181;50.974;18.244;2022-11-20T02:54:55;1.30;;;1.30;;
57345;SDS011;43181;50.974;18.244;2022-11-20T02:57:21;3.70;;;3.40;;
57345;SDS011;43181;50.974;18.244;2022-11-20T02:59:47;0.40;;;0.40;;
57345;SDS011;43181;50.974;18.244;2022-11-20T03:02:12;0.80;;;0.80;;
57345;SDS011;43181;50.974;18.244;2022-11-20T03:04:37;0.60;;;0.60;;
57345;SDS011;43181;50.974;18.244;2022-11-20T03:07:03;1.00;;;1.00;;
57345;SDS011;43181;50.974;18.244;2022-11-20T03:09:29;1.20;;;1.20;;
57345;SDS011;43181;50.974;18.244;2022-11-20T03:11:54;3.10;;;2.90;;
57345;SDS011;43181;50.974;18.244;2022-11-20T03:14:20;1.10;;;1.10;;
57345;SDS011;43181;50.974;18.244;2022-11-20T03:16:46;2.10;;;2.00;;
57345;SDS011;43181;50.974;18.244;2022-11-20T03:19:11;17.00;;;4.60;;
57345;SDS011;43181;50.974;18.244;2022-11-20T03:21:37;2.40;;;2.20;;
57345;SDS011;43181;50.974;18.244;2022-11-20T03:24:03;6.20;;;2.40;;
57345;SDS011;43181;50.974;18.244;2022-11-20T03:26:29;5.40;;;3.90;;
57345;SDS011;43181;50.974;18.244;2022-11-20T03:28:56;2.60;;;2.30;;
57345;SDS011;43181;50.974;18.244;2022-11-20T03:31:29;0.40;;;0.40;;
57345;SDS011;43181;50.974;18.244;2022-11-20T03:33:57;0.60;;;0.60;;
57345;SDS011;43181;50.974;18.244;2022-11-20T03:36:23;0.60;;;0.60;;
57345;SDS011;43181;50.974;18.244;2022-11-20T03:38:48;0.60;;;0.60;;
57345;SDS011;43181;50.974;18.244;2022-11-20T03:41:16;0.70;;;0.70;;
57345;SDS011;43181;50.974;18.244;2022-11-20T03:43:50;0.50;;;0.50;;
57345;SDS011;43181;50.974;18.244;2022-11-20T03:46:20;3.50;;;1.90;;
57345;SDS011;43181;50.974;18.244;2022-11-20T03:48:48;4.00;;;2.30;;
57345;SDS011;43181;50.974;18.244;2022-11-20T03:51:14;0.70;;;0.70;;
57345;SDS011;43181;50.974;18.244;2022-11-20T03:53:50;1.10;;;1.10;;
57345;SDS011;43181;50.974;18.244;2022-11-20T03:56:19;2.30;;;1.30;;
57345;SDS011;43181;50.974;18.244;2022-11-20T03:58:46;2.20;;;1.50;;
57345;SDS011;43181;50.974;18.244;2022-11-20T04:01:16;4.80;;;2.20;;
57345;SDS011;43181;50.974;18.244;2022-11-20T04:03:43;1.40;;;1.20;;
57345;SDS011;43181;50.974;18.244;2022-11-20T04:06:17;0.80;;;0.80;;
57345;SDS011;43181;50.974;18.244;2022-11-20T04:08:44;1.00;;;1.00;;
57345;SDS011;43181;50.974;18.244;2022-11-20T04:11:14;2.10;;;1.90;;
57345;SDS011;43181;50.974;18.244;2022-11-20T04:13:40;1.70;;;1.70;;
57345;SDS011;43181;50.974;18.244;2022-11-20T04:16:07;2.70;;;2.50;;
57345;SDS011;43181;50.974;18.244;2022-11-20T04:18:33;4.30;;;2.70;;
57345;SDS011;43181;50.974;18.244;2022-11-20T04:20:59;4.40;;;3.10;;
57345;SDS011;43181;50.974;18.244;2022-11-20T04:23:24;3.60;;;1.90;;
57345;SDS011;43181;50.974;18.244;2022-11-20T04:25:51;1.00;;;1.00;;
57345;SDS011;43181;50.974;18.244;2022-11-20T04:28:17;0.60;;;0.60;;
57345;SDS011;43181;50.974;18.244;2022-11-20T04:30:42;2.00;;;1.90;;
57345;SDS011;43181;50.974;18.244;2022-11-20T04:33:07;2.60;;;2.40;;
57345;SDS011;43181;50.974;18.244;2022-11-20T04:35:33;1.70;;;1.60;;
57345;SDS011;43181;50.974;18.244;2022-11-20T04:37:59;0.70;;;0.70;;
57345;SDS011;43181;50.974;18.244;2022-11-20T04:40:25;0.70;;;0.70;;
57345;SDS011;43181;50.974;18.244;2022-11-20T04:42:50;2.40;;;2.30;;
57345;SDS011;43181;50.974;18.244;2022-11-20T04:45:16;3.60;;;2.10;;
57345;SDS011;43181;50.974;18.244;2022-11-20T04:47:44;3.90;;;2.40;;
57345;SDS011;43181;50.974;18.244;2022-11-20T04:50:09;29.50;;;3.70;;
57345;SDS011;43181;50.974;18.244;2022-11-20T04:52:37;2.80;;;2.60;;
57345;SDS011;43181;50.974;18.244;2022-11-20T04:55:03;0.80;;;0.80;;
57345;SDS011;43181;50.974;18.244;2022-11-20T04:57:29;3.70;;;2.80;;
57345;SDS011;43181;50.974;18.244;2022-11-20T04:59:54;1.10;;;1.10;;
57345;SDS011;43181;50.974;18.244;2022-11-20T05:02:19;2.00;;;1.90;;
57345;SDS011;43181;50.974;18.244;2022-11-20T05:04:45;1.60;;;1.60;;
57345;SDS011;43181;50.974;18.244;2022-11-20T05:07:11;2.50;;;2.40;;
57345;SDS011;43181;50.974;18.244;2022-11-20T05:09:36;0.60;;;0.60;;
57345;SDS011;43181;50.974;18.244;2022-11-20T05:12:01;4.50;;;3.70;;
57345;SDS011;43181;50.974;18.244;2022-11-20T05:14:27;1.30;;;1.30;;
57345;SDS011;43181;50.974;18.244;2022-11-20T05:16:53;2.90;;;2.70;;
57345;SDS011;43181;50.974;18.244;2022-11-20T05:19:18;13.70;;;4.60;;
57345;SDS011;43181;50.974;18.244;2022-11-20T05:21:43;5.50;;;2.30;;
57345;SDS011;43181;50.974;18.244;2022-11-20T05:24:09;1.50;;;1.40;;
57345;SDS011;43181;50.974;18.244;2022-11-20T05:26:34;13.20;;;2.30;;
57345;SDS011;43181;50.974;18.244;2022-11-20T05:29:00;3.50;;;3.20;;
57345;SDS011;43181;50.974;18.244;2022-11-20T05:31:25;3.60;;;3.30;;
57345;SDS011;43181;50.974;18.244;2022-11-20T05:33:51;0.90;;;0.90;;
57345;SDS011;43181;50.974;18.244;2022-11-20T05:36:16;0.70;;;0.70;;
57345;SDS011;43181;50.974;18.244;2022-11-20T05:38:43;0.80;;;0.80;;
57345;SDS011;43181;50.974;18.244;2022-11-20T05:41:12;3.40;;;2.60;;
57345;SDS011;43181;50.974;18.244;2022-11-20T05:43:41;0.60;;;0.60;;
57345;SDS011;43181;50.974;18.244;2022-11-20T05:46:09;2.20;;;2.10;;
57345;SDS011;43181;50.974;18.244;2022-11-20T05:48:37;6.40;;;1.50;;
57345;SDS011;43181;50.974;18.244;2022-11-20T05:51:04;3.00;;;2.70;;
57345;SDS011;43181;50.974;18.244;2022-11-20T05:53:32;13.40;;;5.10;;
57345;SDS011;43181;50.974;18.244;2022-11-20T05:55:59;9.40;;;3.90;;
57345;SDS011;43181;50.974;18.244;2022-11-20T05:58:26;1.20;;;1.10;;
57345;SDS011;43181;50.974;18.244;2022-11-20T06:00:51;3.60;;;1.90;;
57345;SDS011;43181;50.974;18.244;2022-11-20T06:03:17;2.20;;;2.10;;
57345;SDS011;43181;50.974;18.244;2022-11-20T06:05:42;2.60;;;2.50;;
57345;SDS011;43181;50.974;18.244;2022-11-20T06:08:08;2.90;;;2.80;;
57345;SDS011;43181;50.974;18.244;2022-11-20T06:10:33;3.50;;;3.00;;
57345;SDS011;43181;50.974;18.244;2022-11-20T06:12:58;15.60;;;2.80;;
57345;SDS011;43181;50.974;18.244;2022-11-20T06:15:24;1.70;;;1.60;;
57345;SDS011;43181;50.974;18.244;2022-11-20T06:17:53;0.90;;;0.90;;
57345;SDS011;43181;50.974;18.244;2022-11-20T06:20:20;0.40;;;0.40;;
57345;SDS011;43181;50.974;18.244;2022-11-20T06:22:46;1.60;;;1.50;;
57345;SDS011;43181;50.974;18.244;2022-11-20T06:25:11;19.30;;;5.00;;
57345;SDS011;43181;50.974;18.244;2022-11-20T06:27:37;1.40;;;1.30;;
57345;SDS011;43181;50.974;18.244;2022-11-20T06:30:02;1.10;;;1.10;;
57345;SDS011;43181;50.974;18.244;2022-11-20T06:32:29;1.10;;;1.10;;
57345;SDS011;43181;50.974;18.244;2022-11-20T06:34:54;2.30;;;1.70;;
57345;SDS011;43181;50.974;18.244;2022-11-20T06:37:19;0.80;;;0.80;;
57345;SDS011;43181;50.974;18.244;2022-11-20T06:39:45;1.40;;;1.20;;
57345;SDS011;43181;50.974;18.244;2022-11-20T06:42:10;1.60;;;1.50;;
57345;SDS011;43181;50.974;18.244;2022-11-20T06:44:36;7.20;;;5.60;;
57345;SDS011;43181;50.974;18.244;2022-11-20T06:47:01;3.20;;;3.00;;
57345;SDS011;43181;50.974;18.244;2022-11-20T06:49:29;3.40;;;3.20;;
57345;SDS011;43181;50.974;18.244;2022-11-20T06:51:54;4.80;;;4.30;;
57345;SDS011;43181;50.974;18.244;2022-11-20T06:54:20;4.10;;;2.80;;
57345;SDS011;43181;50.974;18.244;2022-11-20T06:56:54;3.10;;;1.90;;
57345;SDS011;43181;50.974;18.244;2022-11-20T06:59:20;10.50;;;6.80;;
57345;SDS011;43181;50.974;18.244;2022-11-20T07:01:45;8.40;;;5.40;;
57345;SDS011;43181;50.974;18.244;2022-11-20T07:04:11;10.40;;;7.70;;
57345;SDS011;43181;50.974;18.244;2022-11-20T07:06:36;11.10;;;6.10;;
57345;SDS011;43181;50.974;18.244;2022-11-20T07:09:02;7.50;;;5.70;;
57345;SDS011;43181;50.974;18.244;2022-11-20T07:11:27;11.50;;;6.50;;
57345;SDS011;43181;50.974;18.244;2022-11-20T07:13:53;8.30;;;5.20;;
57345;SDS011;43181;50.974;18.244;2022-11-20T07:16:18;11.40;;;5.80;;
57345;SDS011;43181;50.974;18.244;2022-11-20T07:18:44;22.80;;;6.90;;
57345;SDS011;43181;50.974;18.244;2022-11-20T07:21:10;7.60;;;6.30;;
57345;SDS011;43181;50.974;18.244;2022-11-20T07:23:36;13.10;;;8.20;;
57345;SDS011;43181;50.974;18.244;2022-11-20T07:26:05;21.20;;;10.60;;
57345;SDS011;43181;50.974;18.244;2022-11-20T07:28:32;11.50;;;8.00;;
57345;SDS011;43181;50.974;18.244;2022-11-20T07:30:57;15.80;;;9.30;;
57345;SDS011;43181;50.974;18.244;2022-11-20T07:33:23;55.70;;;23.20;;
57345;SDS011;43181;50.974;18.244;2022-11-20T07:35:48;45.50;;;19.60;;
57345;SDS011;43181;50.974;18.244;2022-11-20T07:38:14;30.50;;;15.10;;
57345;SDS011;43181;50.974;18.244;2022-11-20T07:40:40;26.30;;;14.60;;
57345;SDS011;43181;50.974;18.244;2022-11-20T07:43:05;30.70;;;13.30;;
57345;SDS011;43181;50.974;18.244;2022-11-20T07:45:31;24.10;;;12.60;;
57345;SDS011;43181;50.974;18.244;2022-11-20T07:47:56;20.70;;;11.90;;
57345;SDS011;43181;50.974;18.244;2022-11-20T07:50:22;22.80;;;10.00;;
57345;SDS011;43181;50.974;18.244;2022-11-20T07:52:48;26.00;;;10.70;;
57345;SDS011;43181;50.974;18.244;2022-11-20T07:55:13;32.20;;;11.60;;
57345;SDS011;43181;50.974;18.244;2022-11-20T07:57:39;16.40;;;10.10;;
57345;SDS011;43181;50.974;18.244;2022-11-20T08:00:05;20.50;;;11.20;;
57345;SDS011;43181;50.974;18.244;2022-11-20T08:02:36;21.20;;;9.40;;
57345;SDS011;43181;50.974;18.244;2022-11-20T08:05:03;20.10;;;10.10;;
57345;SDS011;43181;50.974;18.244;2022-11-20T08:07:28;26.70;;;10.60;;
57345;SDS011;43181;50.974;18.244;2022-11-20T08:09:54;23.00;;;10.70;;
57345;SDS011;43181;50.974;18.244;2022-11-20T08:12:19;21.30;;;9.30;;
57345;SDS011;43181;50.974;18.244;2022-11-20T08:15:05;24.30;;;9.90;;
57345;SDS011;43181;50.974;18.244;2022-11-20T08:17:31;25.70;;;8.70;;
57345;SDS011;43181;50.974;18.244;2022-11-20T08:19:57;16.30;;;7.40;;
57345;SDS011;43181;50.974;18.244;2022-11-20T08:22:23;22.70;;;10.90;;
57345;SDS011;43181;50.974;18.244;2022-11-20T08:24:48;18.10;;;10.30;;
57345;SDS011;43181;50.974;18.244;2022-11-20T08:27:14;23.60;;;8.50;;
57345;SDS011;43181;50.974;18.244;2022-11-20T08:29:40;22.50;;;9.20;;
57345;SDS011;43181;50.974;18.244;2022-11-20T08:32:06;21.20;;;9.60;;
57345;SDS011;43181;50.974;18.244;2022-11-20T08:34:34;22.50;;;10.80;;
57345;SDS011;43181;50.974;18.244;2022-11-20T08:37:01;26.20;;;12.70;;
57345;SDS011;43181;50.974;18.244;2022-11-20T08:39:27;25.10;;;10.70;;
57345;SDS011;43181;50.974;18.244;2022-11-20T08:41:52;23.50;;;9.30;;
57345;SDS011;43181;50.974;18.244;2022-11-20T08:44:21;23.90;;;9.30;;
57345;SDS011;43181;50.974;18.244;2022-11-20T08:46:46;19.00;;;8.00;;
57345;SDS011;43181;50.974;18.244;2022-11-20T08:49:12;18.70;;;9.20;;
57345;SDS011;43181;50.974;18.244;2022-11-20T08:51:39;20.40;;;10.50;;
57345;SDS011;43181;50.974;18.244;2022-11-20T08:54:05;26.80;;;10.50;;
57345;SDS011;43181;50.974;18.244;2022-11-20T08:56:31;28.70;;;10.30;;
57345;SDS011;43181;50.974;18.244;2022-11-20T08:58:57;24.80;;;9.20;;
57345;SDS011;43181;50.974;18.244;2022-11-20T09:01:24;24.00;;;9.20;;
57345;SDS011;43181;50.974;18.244;2022-11-20T09:03:50;23.70;;;10.10;;
57345;SDS011;43181;50.974;18.244;2022-11-20T09:06:19;25.60;;;9.40;;
57345;SDS011;43181;50.974;18.244;2022-11-20T09:08:44;22.30;;;10.10;;
57345;SDS011;43181;50.974;18.244;2022-11-20T09:11:10;22.60;;;10.20;;
57345;SDS011;43181;50.974;18.244;2022-11-20T09:13:36;24.40;;;8.10;;
57345;SDS011;43181;50.974;18.244;2022-11-20T09:16:05;29.50;;;11.00;;
57345;SDS011;43181;50.974;18.244;2022-11-20T09:18:33;15.40;;;8.00;;
57345;SDS011;43181;50.974;18.244;2022-11-20T09:21:02;18.70;;;7.90;;
57345;SDS011;43181;50.974;18.244;2022-11-20T09:23:32;21.00;;;8.10;;
57345;SDS011;43181;50.974;18.244;2022-11-20T09:26:06;20.00;;;7.10;;
57345;SDS011;43181;50.974;18.244;2022-11-20T09:28:35;18.20;;;8.20;;
57345;SDS011;43181;50.974;18.244;2022-11-20T09:31:00;16.50;;;8.40;;
57345;SDS011;43181;50.974;18.244;2022-11-20T09:33:26;22.10;;;8.00;;
57345;SDS011;43181;50.974;18.244;2022-11-20T09:35:52;19.70;;;7.60;;
57345;SDS011;43181;50.974;18.244;2022-11-20T09:38:17;17.30;;;7.70;;
57345;SDS011;43181;50.974;18.244;2022-11-20T09:40:50;18.40;;;8.20;;
57345;SDS011;43181;50.974;18.244;2022-11-20T09:46:35;18.20;;;9.10;;
57345;SDS011;43181;50.974;18.244;2022-11-20T09:54:33;29.90;;;9.90;;
57345;SDS011;43181;50.974;18.244;2022-11-20T09:57:03;22.80;;;10.30;;
57345;SDS011;43181;50.974;18.244;2022-11-20T10:02:15;25.70;;;9.90;;
57345;SDS011;43181;50.974;18.244;2022-11-20T10:04:52;27.50;;;8.90;;
57345;SDS011;43181;50.974;18.244;2022-11-20T10:07:22;13.00;;;7.60;;
57345;SDS011;43181;50.974;18.244;2022-11-20T10:09:53;14.90;;;7.00;;
57345;SDS011;43181;50.974;18.244;2022-11-20T10:12:25;34.70;;;12.40;;
57345;SDS011;43181;50.974;18.244;2022-11-20T10:31:17;10.00;;;4.60;;
57345;SDS011;43181;50.974;18.244;2022-11-20T10:33:59;8.70;;;4.20;;
57345;SDS011;43181;50.974;18.244;2022-11-20T10:36:28;13.20;;;5.90;;
57345;SDS011;43181;50.974;18.244;2022-11-20T10:39:00;9.20;;;4.20;;
57345;SDS011;43181;50.974;18.244;2022-11-20T10:41:32;6.80;;;3.70;;
57345;SDS011;43181;50.974;18.244;2022-11-20T10:46:40;9.20;;;4.60;;
57345;SDS011;43181;50.974;18.244;2022-11-20T10:49:11;7.40;;;3.70;;
57345;SDS011;43181;50.974;18.244;2022-11-20T10:51:52;11.20;;;4.80;;
57345;SDS011;43181;50.974;18.244;2022-11-20T11:00:16;14.20;;;5.00;;
57345;SDS011;43181;50.974;18.244;2022-11-20T11:02:52;12.40;;;4.90;;
57345;SDS011;43181;50.974;18.244;2022-11-20T11:07:46;11.10;;;6.00;;
57345;SDS011;43181;50.974;18.244;2022-11-20T11:13:01;6.70;;;3.50;;
57345;SDS011;43181;50.974;18.244;2022-11-20T11:15:44;7.80;;;3.90;;
57345;SDS011;43181;50.974;18.244;2022-11-20T11:18:10;13.20;;;6.10;;
57345;SDS011;43181;50.974;18.244;2022-11-20T11:20:36;12.70;;;5.50;;
57345;SDS011;43181;50.974;18.244;2022-11-20T11:23:02;11.00;;;5.70;;
57345;SDS011;43181;50.974;18.244;2022-11-20T11:25:31;12.00;;;6.00;;
57345;SDS011;43181;50.974;18.244;2022-11-20T11:28:17;11.10;;;5.70;;
57345;SDS011;43181;50.974;18.244;2022-11-20T11:30:47;10.40;;;5.30;;
57345;SDS011;43181;50.974;18.244;2022-11-20T11:33:19;8.50;;;5.10;;
57345;SDS011;43181;50.974;18.244;2022-11-20T11:35:59;11.90;;;5.50;;
57345;SDS011;43181;50.974;18.244;2022-11-20T11:38:38;16.00;;;4.30;;
57345;SDS011;43181;50.974;18.244;2022-11-20T11:41:07;10.90;;;5.00;;
57345;SDS011;43181;50.974;18.244;2022-11-20T11:43:36;10.30;;;5.50;;
57345;SDS011;43181;50.974;18.244;2022-11-20T11:46:25;13.70;;;5.90;;
57345;SDS011;43181;50.974;18.244;2022-11-20T11:49:14;11.80;;;5.80;;
57345;SDS011;43181;50.974;18.244;2022-11-20T11:51:46;12.30;;;6.40;;
57345;SDS011;43181;50.974;18.244;2022-11-20T11:54:17;15.50;;;6.50;;
57345;SDS011;43181;50.974;18.244;2022-11-20T11:56:47;14.80;;;7.30;;
57345;SDS011;43181;50.974;18.244;2022-11-20T11:59:16;11.90;;;5.80;;
57345;SDS011;43181;50.974;18.244;2022-11-20T12:01:51;14.30;;;5.60;;
57345;SDS011;43181;50.974;18.244;2022-11-20T12:06:57;19.40;;;8.10;;
57345;SDS011;43181;50.974;18.244;2022-11-20T12:09:27;13.60;;;7.00;;
57345;SDS011;43181;50.974;18.244;2022-11-20T12:12:15;10.90;;;6.30;;
57345;SDS011;43181;50.974;18.244;2022-11-20T12:14:47;26.00;;;10.00;;
57345;SDS011;43181;50.974;18.244;2022-11-20T12:17:15;15.90;;;7.90;;
57345;SDS011;43181;50.974;18.244;2022-11-20T12:19:41;16.90;;;8.70;;
57345;SDS011;43181;50.974;18.244;2022-11-20T12:38:30;17.80;;;7.80;;
57345;SDS011;43181;50.974;18.244;2022-11-20T12:41:35;14.90;;;6.50;;
57345;SDS011;43181;50.974;18.244;2022-11-20T12:47:50;16.80;;;6.60;;
57345;SDS011;43181;50.974;18.244;2022-11-20T12:53:25;20.90;;;7.70;;
57345;SDS011;43181;50.974;18.244;2022-11-20T13:07:17;11.10;;;4.50;;
57345;SDS011;43181;50.974;18.244;2022-11-20T13:09:44;11.20;;;5.00;;
57345;SDS011;43181;50.974;18.244;2022-11-20T13:12:17;17.30;;;6.40;;
57345;SDS011;43181;50.974;18.244;2022-11-20T13:14:52;15.30;;;6.90;;
57345;SDS011;43181;50.974;18.244;2022-11-20T13:17:36;10.90;;;5.50;;
57345;SDS011;43181;50.974;18.244;2022-11-20T13:20:06;17.20;;;5.30;;
57345;SDS011;43181;50.974;18.244;2022-11-20T13:22:45;15.00;;;6.60;;
57345;SDS011;43181;50.974;18.244;2022-11-20T13:27:49;7.80;;;4.80;;
57345;SDS011;43181;50.974;18.244;2022-11-20T13:30:18;14.30;;;6.60;;
57345;SDS011;43181;50.974;18.244;2022-11-20T13:32:55;11.10;;;7.00;;
57345;SDS011;43181;50.974;18.244;2022-11-20T13:35:31;16.10;;;7.10;;
57345;SDS011;43181;50.974;18.244;2022-11-20T13:38:13;14.10;;;5.50;;
57345;SDS011;43181;50.974;18.244;2022-11-20T13:41:22;12.20;;;5.60;;
57345;SDS011;43181;50.974;18.244;2022-11-20T13:43:52;11.00;;;5.60;;
57345;SDS011;43181;50.974;18.244;2022-11-20T13:46:17;10.00;;;5.50;;
57345;SDS011;43181;50.974;18.244;2022-11-20T13:48:49;14.00;;;6.40;;
57345;SDS011;43181;50.974;18.244;2022-11-20T13:51:31;19.20;;;7.10;;
57345;SDS011;43181;50.974;18.244;2022-11-20T13:56:47;11.40;;;6.80;;
57345;SDS011;43181;50.974;18.244;2022-11-20T14:02:02;13.80;;;7.50;;
57345;SDS011;43181;50.974;18.244;2022-11-20T14:04:38;16.90;;;7.30;;
57345;SDS011;43181;50.974;18.244;2022-11-20T14:07:08;20.20;;;6.80;;
57345;SDS011;43181;50.974;18.244;2022-11-20T14:09:36;7.80;;;4.40;;
57345;SDS011;43181;50.974;18.244;2022-11-20T14:12:03;18.80;;;5.90;;
57345;SDS011;43181;50.974;18.244;2022-11-20T14:14:29;10.00;;;5.20;;
57345;SDS011;43181;50.974;18.244;2022-11-20T14:17:38;5.90;;;5.30;;
57345;SDS011;43181;50.974;18.244;2022-11-20T14:19:47;12.20;;;6.90;;
57345;SDS011;43181;50.974;18.244;2022-11-20T14:24:44;8.60;;;4.80;;
57345;SDS011;43181;50.974;18.244;2022-11-20T14:27:13;18.60;;;6.10;;
57345;SDS011;43181;50.974;18.244;2022-11-20T14:29:41;10.50;;;4.10;;
57345;SDS011;43181;50.974;18.244;2022-11-20T14:32:08;4.30;;;3.80;;
57345;SDS011;43181;50.974;18.244;2022-11-20T14:34:36;3.80;;;3.50;;
57345;SDS011;43181;50.974;18.244;2022-11-20T14:37:04;8.70;;;4.70;;
57345;SDS011;43181;50.974;18.244;2022-11-20T14:39:34;5.30;;;2.80;;
57345;SDS011;43181;50.974;18.244;2022-11-20T14:42:02;5.90;;;4.30;;
57345;SDS011;43181;50.974;18.244;2022-11-20T14:44:31;8.60;;;5.40;;
57345;SDS011;43181;50.974;18.244;2022-11-20T14:47:02;17.60;;;4.40;;
57345;SDS011;43181;50.974;18.244;2022-11-20T14:49:29;6.30;;;4.40;;
57345;SDS011;43181;50.974;18.244;2022-11-20T14:51:59;5.10;;;4.60;;
57345;SDS011;43181;50.974;18.244;2022-11-20T14:54:34;16.60;;;8.10;;
57345;SDS011;43181;50.974;18.244;2022-11-20T14:57:18;4.50;;;4.10;;
57345;SDS011;43181;50.974;18.244;2022-11-20T14:59:48;3.00;;;2.90;;
57345;SDS011;43181;50.974;18.244;2022-11-20T15:02:14;4.30;;;3.90;;
57345;SDS011;43181;50.974;18.244;2022-11-20T15:07:36;7.20;;;4.30;;
57345;SDS011;43181;50.974;18.244;2022-11-20T15:10:06;2.20;;;2.10;;
57345;SDS011;43181;50.974;18.244;2022-11-20T15:12:37;1.30;;;1.20;;
57345;SDS011;43181;50.974;18.244;2022-11-20T15:15:05;3.60;;;3.30;;
57345;SDS011;43181;50.974;18.244;2022-11-20T15:17:31;4.40;;;2.30;;
57345;SDS011;43181;50.974;18.244;2022-11-20T15:19:58;3.90;;;3.70;;
57345;SDS011;43181;50.974;18.244;2022-11-20T15:22:25;10.80;;;3.60;;
57345;SDS011;43181;50.974;18.244;2022-11-20T15:24:50;3.60;;;2.80;;
57345;SDS011;43181;50.974;18.244;2022-11-20T15:27:16;6.40;;;2.70;;
57345;SDS011;43181;50.974;18.244;2022-11-20T15:29:41;12.80;;;4.40;;
57345;SDS011;43181;50.974;18.244;2022-11-20T15:32:07;12.50;;;4.80;;
57345;SDS011;43181;50.974;18.244;2022-11-20T15:34:34;2.60;;;2.40;;
57345;SDS011;43181;50.974;18.244;2022-11-20T15:36:59;3.60;;;2.60;;
57345;SDS011;43181;50.974;18.244;2022-11-20T15:39:25;5.40;;;3.00;;
57345;SDS011;43181;50.974;18.244;2022-11-20T15:41:50;4.30;;;2.60;;
57345;SDS011;43181;50.974;18.244;2022-11-20T15:44:15;4.60;;;3.10;;
57345;SDS011;43181;50.974;18.244;2022-11-20T15:46:41;7.40;;;3.80;;
57345;SDS011;43181;50.974;18.244;2022-11-20T15:49:15;12.70;;;5.90;;
57345;SDS011;43181;50.974;18.244;2022-11-20T15:51:42;3.90;;;3.60;;
57345;SDS011;43181;50.974;18.244;2022-11-20T15:54:18;5.80;;;2.90;;
57345;SDS011;43181;50.974;18.244;2022-11-20T15:56:46;1.90;;;1.90;;
57345;SDS011;43181;50.974;18.244;2022-11-20T15:59:14;1.70;;;1.50;;
57345;SDS011;43181;50.974;18.244;2022-11-20T16:01:40;4.80;;;3.50;;
57345;SDS011;43181;50.974;18.244;2022-11-20T16:04:10;8.30;;;4.00;;
57345;SDS011;43181;50.974;18.244;2022-11-20T16:06:37;5.50;;;3.30;;
57345;SDS011;43181;50.974;18.244;2022-11-20T16:09:03;1.50;;;1.50;;
57345;SDS011;43181;50.974;18.244;2022-11-20T16:11:29;7.90;;;4.30;;